Time;durP1;ratioP1;P1;durP2;ratioP2;P2;SDS_P1;SDS_P2;PMS_P1;PMS_P2;Temp;Humidity;BMP_temperature;BMP_pressure;BME280_temperature;BME280_humidity;BME280_pressure;Samples;Min_cycle;Max_cycle;Signal;HPM_P1;HPM_P2
2021/08/10 00:00:08;;;;;;;;;;;;;;;;;;2122943;59;1448;-91
2021/08/10 00:02:33;;;;;;;;;;;;;;;;;;2125048;67;2014;-91
2021/08/10 00:04:59;;;;;;;;;;;;;;;;;;2124963;59;1353;-89
2021/08/10 00:07:24;;;;;;;;;;;;;;;;;;2129472;67;1372;-90
2021/08/10 00:09:49;;;;;;;;;;;;;;;;;;2125438;67;1361;-89
2021/08/10 00:12:15;;;;;;;;;;;;;;;;;;2121592;59;955;-91
2021/08/10 00:14:40;;;;;;;;;;;;;;;;;;2121314;59;1245;-91
2021/08/10 00:17:06;;;;;;;;;;;;;;;;;;2121031;67;1174;-90
2021/08/10 00:19:31;;;;;;;;;;;;;;;;;;2121883;59;826;-90
2021/08/10 00:21:57;;;;;;;;;;;;;;;;;;2121395;59;1252;-90
2021/08/10 00:24:22;;;;;;;;;;;;;;;;;;2121521;59;1891;-91
2021/08/10 00:26:47;;;;;;;;;;;;;;;;;;2121783;67;832;-88
2021/08/10 00:29:12;;;;;;;;;;;;;;;;;;2122175;59;972;-94
2021/08/10 00:31:38;;;;;;;;;;;;;;;;;;2122072;59;851;-91
2021/08/10 00:34:03;;;;;;;;;;;;;;;;;;2123930;59;1414;-92
2021/08/10 00:36:28;;;;;;;;;;;;;;;;;;2125641;59;1203;-89
2021/08/10 00:38:53;;;;;;;;;;;;;;;;;;2127897;67;1391;-91
2021/08/10 00:41:19;;;;;;;;;;;;;;;;;;2125116;67;813;-89
2021/08/10 00:43:46;;;;;;;;;;;;;;;;;;2125079;59;1931;-90
2021/08/10 00:46:12;;;;;;;;;;;;;;;;;;2125912;67;1242;-93
2021/08/10 00:48:37;;;;;;;;;;;;;;;;;;2126213;60;1270;-92
2021/08/10 00:51:07;;;;;;;;;;;;;;;;;;2125569;60;1087;-90
2021/08/10 00:53:32;;;;;;;;;;;;;;;;;;2125152;67;828;-90
2021/08/10 00:55:57;;;;;;;;;;;;;;;;;;2125047;60;1174;-89
2021/08/10 00:58:22;;;;;;;;;;;;;;;;;;2124869;67;1294;-91
2021/08/10 01:00:48;;;;;;;;;;;;;;;;;;2124918;60;1340;-91
2021/08/10 01:03:13;;;;;;;;;;;;;;;;;;2124910;59;1928;-90
2021/08/10 01:05:43;;;;;;;;;;;;;;;;;;2124735;59;1175;-90
2021/08/10 01:08:11;;;;;;;;;;;;;;;;;;2124354;67;1290;-90
2021/08/10 01:10:39;;;;;;;;;;;;;;;;;;2119033;68;1009;-90
2021/08/10 01:13:23;;;;;;;;;;;;;;;;;;2121374;67;1316;-90
2021/08/10 01:15:58;;;;;;;;;;;;;;;;;;2124782;60;1329;-90
2021/08/10 01:18:30;;;;;;;;;;;;;;;;;;2125195;60;973;-88
2021/08/10 01:21:08;;;;;;;;;;;;;;;;;;2124458;59;1327;-90
2021/08/10 01:23:34;;;;;;;;;;;;;;;;;;2123901;67;1910;-91
2021/08/10 01:26:07;;;;;;;;;;;;;;;;;;2124872;67;1325;-88
2021/08/10 01:28:39;;;;;;;;;;;;;;;;;;2124731;59;1291;-88
2021/08/10 01:31:07;;;;;;;;;;;;;;;;;;2125027;60;1219;-88
2021/08/10 01:33:40;;;;;;;;;;;;;;;;;;2124590;67;1337;-90
2021/08/10 01:36:06;;;;;;;;;;;;;;;;;;2120379;60;1367;-89
2021/08/10 01:38:32;;;;;;;;;;;;;;;;;;2117931;60;1091;-91
2021/08/10 01:40:59;;;;;;;;;;;;;;;;;;2124204;67;1313;-90
2021/08/10 01:43:24;;;;;;;;;;;;;;;;;;2134965;67;1956;-89
2021/08/10 01:45:50;;;;;;;;;;;;;;;;;;2127391;67;1376;-87
2021/08/10 01:48:16;;;;;;;;;;;;;;;;;;2127975;67;1185;-90
2021/08/10 01:50:44;;;;;;;;;;;;;;;;;;2124997;59;1270;-89
2021/08/10 01:53:10;;;;;;;;;;;;;;;;;;2125282;60;982;-89
2021/08/10 01:55:36;;;;;;;;;;;;;;;;;;2125046;60;1364;-90
2021/08/10 01:58:01;;;;;;;;;;;;;;;;;;2125242;67;922;-89
2021/08/10 02:00:27;;;;;;;;;;;;;;;;;;2125357;59;1212;-88
2021/08/10 02:02:52;;;;;;;;;;;;;;;;;;2124700;59;1904;-89
2021/08/10 02:05:19;;;;;;;;;;;;;;;;;;2124737;67;1301;-91
2021/08/10 02:07:44;;;;;;;;;;;;;;;;;;2124856;67;912;-88
2021/08/10 02:10:10;;;;;;;;;;;;;;;;;;2125116;59;932;-89
2021/08/10 02:12:36;;;;;;;;;;;;;;;;;;2124730;59;1318;-88
2021/08/10 02:15:02;;;;;;;;;;;;;;;;;;2124970;59;1216;-89
2021/08/10 02:17:27;;;;;;;;;;;;;;;;;;2125431;67;1025;-90
2021/08/10 02:19:52;;;;;;;;;;;;;;;;;;2125147;67;826;-90
2021/08/10 02:22:18;;;;;;;;;;;;;;;;;;2125131;60;892;-88
2021/08/10 02:24:46;;;;;;;;;;;;;;;;;;2125104;60;1964;-89
2021/08/10 02:27:16;;;;;;;;;;;;;;;;;;2123252;67;1425;-88
2021/08/10 02:29:42;;;;;;;;;;;;;;;;;;2125126;60;1161;-89
2021/08/10 02:32:09;;;;;;;;;;;;;;;;;;2125147;60;995;-89
2021/08/10 02:34:35;;;;;;;;;;;;;;;;;;2124680;67;1309;-89
2021/08/10 02:37:01;;;;;;;;;;;;;;;;;;2124654;67;1329;-88
2021/08/10 02:39:27;;;;;;;;;;;;;;;;;;2124334;67;1343;-89
2021/08/10 02:41:54;;;;;;;;;;;;;;;;;;2127885;67;1493;-89
2021/08/10 02:44:20;;;;;;;;;;;;;;;;;;2125084;60;1894;-90
2021/08/10 02:46:45;;;;;;;;;;;;;;;;;;2125135;67;1379;-91
2021/08/10 02:49:11;;;;;;;;;;;;;;;;;;2125026;60;1462;-89
2021/08/10 02:51:37;;;;;;;;;;;;;;;;;;2125542;60;1231;-88
2021/08/10 02:54:03;;;;;;;;;;;;;;;;;;2125678;59;872;-90
2021/08/10 02:56:31;;;;;;;;;;;;;;;;;;2124941;59;1423;-91
2021/08/10 02:59:00;;;;;;;;;;;;;;;;;;2124823;60;1287;-88
2021/08/10 03:01:29;;;;;;;;;;;;;;;;;;2125086;59;821;-92
2021/08/10 03:03:55;;;;;;;;;;;;;;;;;;2124573;59;1902;-86
2021/08/10 03:06:21;;;;;;;;;;;;;;;;;;2121353;60;1254;-90
2021/08/10 03:08:47;;;;;;;;;;;;;;;;;;2121323;60;1543;-88
2021/08/10 03:11:13;;;;;;;;;;;;;;;;;;2125440;60;805;-91
2021/08/10 03:13:39;;;;;;;;;;;;;;;;;;2125153;67;797;-91
2021/08/10 03:16:05;;;;;;;;;;;;;;;;;;2124755;60;1240;-91
2021/08/10 03:18:34;;;;;;;;;;;;;;;;;;2124455;67;1325;-90
2021/08/10 03:21:00;;;;;;;;;;;;;;;;;;2124756;60;1472;-89
2021/08/10 03:23:26;;;;;;;;;;;;;;;;;;2125748;59;1898;-90
2021/08/10 03:25:52;;;;;;;;;;;;;;;;;;2125333;60;1254;-90
2021/08/10 03:28:18;;;;;;;;;;;;;;;;;;2125050;60;1013;-91
2021/08/10 03:30:44;;;;;;;;;;;;;;;;;;2124817;60;1015;-91
2021/08/10 03:33:09;;;;;;;;;;;;;;;;;;2126298;59;1495;-90
2021/08/10 03:35:36;;;;;;;;;;;;;;;;;;2128044;67;1289;-90
2021/08/10 03:38:01;;;;;;;;;;;;;;;;;;2125422;60;928;-89
2021/08/10 03:40:27;;;;;;;;;;;;;;;;;;2124893;67;1239;-92
2021/08/10 03:42:53;;;;;;;;;;;;;;;;;;2124708;59;1908;-90
2021/08/10 03:45:19;;;;;;;;;;;;;;;;;;2124410;59;1320;-90
2021/08/10 03:47:45;;;;;;;;;;;;;;;;;;2124862;60;1412;-91
2021/08/10 03:50:11;;;;;;;;;;;;;;;;;;2125152;67;841;-91
2021/08/10 03:52:36;;;;;;;;;;;;;;;;;;2125583;67;790;-89
2021/08/10 03:55:03;;;;;;;;;;;;;;;;;;2125551;60;1390;-89
2021/08/10 03:57:29;;;;;;;;;;;;;;;;;;2128146;67;1238;-90
2021/08/10 03:59:56;;;;;;;;;;;;;;;;;;2125764;60;880;-90
2021/08/10 04:02:21;;;;;;;;;;;;;;;;;;2124175;60;1407;-90
2021/08/10 04:04:50;;;;;;;;;;;;;;;;;;2129357;60;1981;-90
2021/08/10 04:07:16;;;;;;;;;;;;;;;;;;2128039;59;1124;-90
2021/08/10 04:09:41;;;;;;;;;;;;;;;;;;2125211;67;1301;-90
2021/08/10 04:12:08;;;;;;;;;;;;;;;;;;2125852;60;833;-90
2021/08/10 04:14:34;;;;;;;;;;;;;;;;;;2125719;60;1264;-89
2021/08/10 04:17:00;;;;;;;;;;;;;;;;;;2125361;67;1149;-90
2021/08/10 04:19:28;;;;;;;;;;;;;;;;;;2122299;59;868;-89
2021/08/10 04:21:53;;;;;;;;;;;;;;;;;;2122272;59;1452;-90
2021/08/10 04:24:19;;;;;;;;;;;;;;;;;;2121718;59;1908;-90
2021/08/10 04:26:44;;;;;;;;;;;;;;;;;;2122259;59;868;-89
2021/08/10 04:29:09;;;;;;;;;;;;;;;;;;2121764;59;1282;-91
2021/08/10 04:31:34;;;;;;;;;;;;;;;;;;2122270;67;926;-91
2021/08/10 04:34:00;;;;;;;;;;;;;;;;;;2121808;67;1342;-91
2021/08/10 04:36:25;;;;;;;;;;;;;;;;;;2121839;67;1351;-90
2021/08/10 04:38:50;;;;;;;;;;;;;;;;;;2121873;59;839;-89
2021/08/10 04:41:15;;;;;;;;;;;;;;;;;;2121471;59;1354;-92
2021/08/10 04:43:41;;;;;;;;;;;;;;;;;;2122219;59;1896;-91
2021/08/10 04:46:06;;;;;;;;;;;;;;;;;;2124295;67;1419;-89
2021/08/10 04:48:31;;;;;;;;;;;;;;;;;;2125782;59;1232;-88
2021/08/10 04:50:56;;;;;;;;;;;;;;;;;;2125495;67;1233;-92
2021/08/10 04:53:22;;;;;;;;;;;;;;;;;;2125395;67;1227;-92
2021/08/10 04:55:47;;;;;;;;;;;;;;;;;;2125563;60;1338;-90
2021/08/10 04:58:12;;;;;;;;;;;;;;;;;;2125734;67;1326;-89
2021/08/10 05:00:37;;;;;;;;;;;;;;;;;;2126111;59;1228;-90
2021/08/10 05:03:03;;;;;;;;;;;;;;;;;;2126047;59;1904;-90
2021/08/10 05:05:28;;;;;;;;;;;;;;;;;;2126028;59;1349;-88
2021/08/10 05:07:53;;;;;;;;;;;;;;;;;;2125677;67;964;-90
2021/08/10 05:10:19;;;;;;;;;;;;;;;;;;2128570;59;1243;-90
2021/08/10 05:12:44;;;;;;;;;;;;;;;;;;2125195;67;1435;-91
2021/08/10 05:15:09;;;;;;;;;;;;;;;;;;2128275;67;1306;-90
2021/08/10 05:17:34;;;;;;;;;;;;;;;;;;2124630;67;1317;-88
2021/08/10 05:20:00;;;;;;;;;;;;;;;;;;2124379;67;1292;-90
2021/08/10 05:22:25;;;;;;;;;;;;;;;;;;2124051;67;1059;-90
2021/08/10 05:24:51;;;;;;;;;;;;;;;;;;2124863;60;1984;-90
2021/08/10 05:27:16;;;;;;;;;;;;;;;;;;2123887;59;1029;-91
2021/08/10 05:29:41;;;;;;;;;;;;;;;;;;2124710;67;1343;-88
2021/08/10 05:32:07;;;;;;;;;;;;;;;;;;2125017;60;882;-90
2021/08/10 05:34:32;;;;;;;;;;;;;;;;;;2128256;67;1369;-89
2021/08/10 05:36:57;;;;;;;;;;;;;;;;;;2124466;59;1316;-88
2021/08/10 05:39:23;;;;;;;;;;;;;;;;;;2133703;67;1261;-90
2021/08/10 05:41:48;;;;;;;;;;;;;;;;;;2139129;67;1297;-88
2021/08/10 05:44:14;;;;;;;;;;;;;;;;;;2126972;59;1973;-90
2021/08/10 05:46:40;;;;;;;;;;;;;;;;;;2124466;60;833;-89
2021/08/10 05:49:05;;;;;;;;;;;;;;;;;;2124044;59;1330;-90
2021/08/10 05:51:31;;;;;;;;;;;;;;;;;;2124091;67;919;-90
2021/08/10 05:53:56;;;;;;;;;;;;;;;;;;2122511;67;1161;-89
2021/08/10 05:56:21;;;;;;;;;;;;;;;;;;2120387;59;1288;-90
2021/08/10 05:58:47;;;;;;;;;;;;;;;;;;2120613;59;1003;-89
2021/08/10 06:01:12;;;;;;;;;;;;;;;;;;2120579;59;1286;-91
2021/08/10 06:03:37;;;;;;;;;;;;;;;;;;2121337;59;1953;-91
2021/08/10 06:06:03;;;;;;;;;;;;;;;;;;2123709;67;1475;-92
2021/08/10 06:08:28;;;;;;;;;;;;;;;;;;2123985;59;959;-89
2021/08/10 06:10:53;;;;;;;;;;;;;;;;;;2124161;60;955;-90
2021/08/10 06:13:18;;;;;;;;;;;;;;;;;;2124085;60;896;-90
2021/08/10 06:15:44;;;;;;;;;;;;;;;;;;2123967;60;1246;-90
2021/08/10 06:18:09;;;;;;;;;;;;;;;;;;2124090;60;845;-91
2021/08/10 06:20:34;;;;;;;;;;;;;;;;;;2122315;60;1364;-89
2021/08/10 06:23:04;;;;;;;;;;;;;;;;;;2120206;60;1969;-90
2021/08/10 06:25:29;;;;;;;;;;;;;;;;;;2122707;60;1285;-87
2021/08/10 06:27:54;;;;;;;;;;;;;;;;;;2123880;67;1224;-89
2021/08/10 06:30:20;;;;;;;;;;;;;;;;;;2123356;67;1280;-87
2021/08/10 06:32:45;;;;;;;;;;;;;;;;;;2121262;67;1469;-90
2021/08/10 06:35:10;;;;;;;;;;;;;;;;;;2122261;59;1267;-90
2021/08/10 06:37:35;;;;;;;;;;;;;;;;;;2123018;67;1249;-93
2021/08/10 06:40:01;;;;;;;;;;;;;;;;;;2122824;60;1082;-87
2021/08/10 06:42:26;;;;;;;;;;;;;;;;;;2120689;59;1341;-90
2021/08/10 06:44:51;;;;;;;;;;;;;;;;;;2122526;59;1908;-90
2021/08/10 06:47:16;;;;;;;;;;;;;;;;;;2123431;59;1251;-90
2021/08/10 06:49:42;;;;;;;;;;;;;;;;;;2123932;67;968;-91
2021/08/10 06:52:08;;;;;;;;;;;;;;;;;;2123742;60;969;-89
2021/08/10 06:54:33;;;;;;;;;;;;;;;;;;2121937;67;1397;-88
2021/08/10 06:57:04;;;;;;;;;;;;;;;;;;2119634;60;866;-90
2021/08/10 06:59:30;;;;;;;;;;;;;;;;;;2119463;59;1511;-89
2021/08/10 07:01:55;;;;;;;;;;;;;;;;;;2119678;59;893;-89
2021/08/10 07:04:20;;;;;;;;;;;;;;;;;;2119822;59;2009;-90
2021/08/10 07:06:46;;;;;;;;;;;;;;;;;;2121323;60;1199;-89
2021/08/10 07:09:11;;;;;;;;;;;;;;;;;;2121565;60;826;-88
2021/08/10 07:11:41;;;;;;;;;;;;;;;;;;2121447;59;1083;-90
2021/08/10 07:14:11;;;;;;;;;;;;;;;;;;2120977;59;1434;-90
2021/08/10 07:16:36;;;;;;;;;;;;;;;;;;2115471;59;1372;-89
2021/08/10 07:19:01;;;;;;;;;;;;;;;;;;2121088;67;938;-89
2021/08/10 07:21:27;;;;;;;;;;;;;;;;;;2120880;60;1170;-90
2021/08/10 07:23:52;;;;;;;;;;;;;;;;;;2121143;67;1910;-91
2021/08/10 07:26:17;;;;;;;;;;;;;;;;;;2122273;60;1261;-89
2021/08/10 07:28:42;;;;;;;;;;;;;;;;;;2121547;59;1225;-89
2021/08/10 07:31:08;;;;;;;;;;;;;;;;;;2122165;60;965;-90
2021/08/10 07:33:33;;;;;;;;;;;;;;;;;;2119257;59;1260;-90
2021/08/10 07:35:58;;;;;;;;;;;;;;;;;;2117874;67;1317;-89
2021/08/10 07:38:23;;;;;;;;;;;;;;;;;;2117487;67;991;-88
2021/08/10 07:40:50;;;;;;;;;;;;;;;;;;2120356;67;1320;-89
2021/08/10 07:43:15;;;;;;;;;;;;;;;;;;2121824;59;2055;-92
2021/08/10 07:45:41;;;;;;;;;;;;;;;;;;2120883;60;1450;-89
2021/08/10 07:48:06;;;;;;;;;;;;;;;;;;2122726;59;1141;-91
2021/08/10 07:50:31;;;;;;;;;;;;;;;;;;2122627;67;1203;-91
2021/08/10 07:52:56;;;;;;;;;;;;;;;;;;2122952;67;1199;-90
2021/08/10 07:55:22;;;;;;;;;;;;;;;;;;2120793;67;1473;-90
2021/08/10 07:57:47;;;;;;;;;;;;;;;;;;2119925;59;1167;-89
2021/08/10 08:00:12;;;;;;;;;;;;;;;;;;2122436;60;1410;-90
2021/08/10 08:02:38;;;;;;;;;;;;;;;;;;2123912;59;1316;-91
2021/08/10 08:05:03;;;;;;;;;;;;;;;;;;2126239;59;1953;-90
2021/08/10 08:07:30;;;;;;;;;;;;;;;;;;2137390;67;1192;-89
2021/08/10 08:09:55;;;;;;;;;;;;;;;;;;2132983;59;1406;-90
2021/08/10 08:12:20;;;;;;;;;;;;;;;;;;2137563;67;1162;-90
2021/08/10 08:14:46;;;;;;;;;;;;;;;;;;2131175;59;1411;-90
2021/08/10 08:17:12;;;;;;;;;;;;;;;;;;2122627;59;1510;-91
2021/08/10 08:19:37;;;;;;;;;;;;;;;;;;2119976;60;1338;-90
2021/08/10 08:22:03;;;;;;;;;;;;;;;;;;2123659;59;1286;-89
2021/08/10 08:24:28;;;;;;;;;;;;;;;;;;2116068;68;1906;-87
2021/08/10 08:26:53;;;;;;;;;;;;;;;;;;2117728;60;1204;-89
2021/08/10 08:29:19;;;;;;;;;;;;;;;;;;2122028;67;959;-90
2021/08/10 08:31:44;;;;;;;;;;;;;;;;;;2122481;59;1328;-89
2021/08/10 08:34:09;;;;;;;;;;;;;;;;;;2122579;67;1066;-90
2021/08/10 08:36:34;;;;;;;;;;;;;;;;;;2120975;60;1504;-88
2021/08/10 08:39:00;;;;;;;;;;;;;;;;;;2121549;59;1036;-90
2021/08/10 08:41:25;;;;;;;;;;;;;;;;;;2122893;60;841;-88
2021/08/10 08:43:50;;;;;;;;;;;;;;;;;;2122509;59;1922;-89
2021/08/10 08:46:16;;;;;;;;;;;;;;;;;;2122512;60;1265;-88
2021/08/10 08:48:44;;;;;;;;;;;;;;;;;;2122291;59;1260;-87
2021/08/10 08:51:10;;;;;;;;;;;;;;;;;;2118629;59;1259;-87
2021/08/10 08:53:40;;;;;;;;;;;;;;;;;;2127027;67;1456;-88
2021/08/10 08:56:05;;;;;;;;;;;;;;;;;;2137481;59;1236;-89
2021/08/10 08:58:31;;;;;;;;;;;;;;;;;;2137357;59;1220;-88
2021/08/10 09:00:56;;;;;;;;;;;;;;;;;;2131054;67;1399;-88
2021/08/10 09:03:21;;;;;;;;;;;;;;;;;;2125480;59;1893;-87
2021/08/10 09:05:47;;;;;;;;;;;;;;;;;;2122009;60;1876;-88
2021/08/10 09:08:33;;;;;;;;;;;;;;;;;;2121409;60;1195;-88
2021/08/10 09:11:03;;;;;;;;;;;;;;;;;;2121407;59;1741;-87
2021/08/10 09:13:29;;;;;;;;;;;;;;;;;;2122167;59;1367;-88
2021/08/10 09:15:57;;;;;;;;;;;;;;;;;;2118252;59;2360;-88
2021/08/10 09:18:23;;;;;;;;;;;;;;;;;;2127013;60;1140;-88
2021/08/10 09:20:59;;;;;;;;;;;;;;;;;;2120988;59;1300;-91
2021/08/10 09:23:37;;;;;;;;;;;;;;;;;;2126726;60;1930;-91
2021/08/10 09:26:02;;;;;;;;;;;;;;;;;;2120663;67;1313;-89
2021/08/10 09:28:33;;;;;;;;;;;;;;;;;;2127044;67;1069;-88
2021/08/10 09:31:18;;;;;;;;;;;;;;;;;;2118282;67;955;-90
2021/08/10 09:33:43;;;;;;;;;;;;;;;;;;2122895;59;1362;-90
2021/08/10 09:36:27;;;;;;;;;;;;;;;;;;2121829;60;1355;-88
2021/08/10 09:38:54;;;;;;;;;;;;;;;;;;2122320;60;2214;-90
2021/08/10 09:41:19;;;;;;;;;;;;;;;;;;2122243;59;1873;-89
2021/08/10 09:43:45;;;;;;;;;;;;;;;;;;2132493;67;1914;-88
2021/08/10 09:46:14;;;;;;;;;;;;;;;;;;2127703;59;1320;-91
2021/08/10 09:48:49;;;;;;;;;;;;;;;;;;2129399;59;989;-89
2021/08/10 09:51:15;;;;;;;;;;;;;;;;;;2126006;67;1403;-89
2021/08/10 09:53:41;;;;;;;;;;;;;;;;;;2126889;60;2331;-90
2021/08/10 09:56:07;;;;;;;;;;;;;;;;;;2128517;59;1330;-90
2021/08/10 09:58:54;;;;;;;;;;;;;;;;;;2127575;59;1324;-89
2021/08/10 10:01:29;;;;;;;;;;;;;;;;;;2130887;67;1293;-87
2021/08/10 10:04:07;;;;;;;;;;;;;;;;;;2126964;60;1897;-89
2021/08/10 10:06:32;;;;;;;;;;;;;;;;;;2127516;67;1602;-87
2021/08/10 10:08:57;;;;;;;;;;;;;;;;;;2120629;60;1488;-88
2021/08/10 10:11:23;;;;;;;;;;;;;;;;;;2119760;67;1314;-91
2021/08/10 10:13:48;;;;;;;;;;;;;;;;;;2126870;67;1230;-88
2021/08/10 10:16:13;;;;;;;;;;;;;;;;;;2132946;60;2170;-89
2021/08/10 10:18:39;;;;;;;;;;;;;;;;;;2127881;59;1086;-87
2021/08/10 10:21:05;;;;;;;;;;;;;;;;;;2128689;60;1078;-90
2021/08/10 10:23:30;;;;;;;;;;;;;;;;;;2139802;60;1908;-88
2021/08/10 10:25:56;;;;;;;;;;;;;;;;;;2133120;59;1291;-90
2021/08/10 10:28:22;;;;;;;;;;;;;;;;;;2138274;60;982;-92
2021/08/10 10:30:49;;;;;;;;;;;;;;;;;;2132357;67;1117;-90
2021/08/10 10:33:15;;;;;;;;;;;;;;;;;;2122466;59;877;-91
2021/08/10 10:35:41;;;;;;;;;;;;;;;;;;2121063;59;1268;-90
2021/08/10 10:38:07;;;;;;;;;;;;;;;;;;2123379;59;964;-90
2021/08/10 10:40:33;;;;;;;;;;;;;;;;;;2129296;60;1035;-89
2021/08/10 10:42:58;;;;;;;;;;;;;;;;;;2122941;59;1985;-90
2021/08/10 10:45:34;;;;;;;;;;;;;;;;;;2129131;59;1507;-88
2021/08/10 10:47:59;;;;;;;;;;;;;;;;;;2114765;60;1210;-90
2021/08/10 10:50:24;;;;;;;;;;;;;;;;;;2120856;60;981;-87
2021/08/10 10:53:03;;;;;;;;;;;;;;;;;;2124440;60;1153;-88
2021/08/10 10:55:33;;;;;;;;;;;;;;;;;;2132397;67;1219;-89
2021/08/10 10:57:58;;;;;;;;;;;;;;;;;;2121214;59;1436;-89
2021/08/10 11:00:24;;;;;;;;;;;;;;;;;;2122459;67;1076;-89
2021/08/10 11:03:07;;;;;;;;;;;;;;;;;;2121689;59;1347;-89
2021/08/10 11:05:33;;;;;;;;;;;;;;;;;;2121951;60;1375;-88
2021/08/10 11:07:59;;;;;;;;;;;;;;;;;;2125541;60;1352;-89
2021/08/10 11:10:25;;;;;;;;;;;;;;;;;;2128664;67;1437;-88
2021/08/10 11:12:56;;;;;;;;;;;;;;;;;;2134596;59;1246;-88
2021/08/10 11:15:50;;;;;;;;;;;;;;;;;;2123758;60;1282;-88
2021/08/10 11:18:15;;;;;;;;;;;;;;;;;;2123493;67;1520;-89
2021/08/10 11:20:47;;;;;;;;;;;;;;;;;;2129592;67;1157;-89
2021/08/10 11:23:24;;;;;;;;;;;;;;;;;;2124330;60;1930;-89
2021/08/10 11:25:59;;;;;;;;;;;;;;;;;;2121057;67;1440;-88
2021/08/10 11:28:49;;;;;;;;;;;;;;;;;;2124017;67;1233;-88
2021/08/10 11:31:37;;;;;;;;;;;;;;;;;;2121146;67;1292;-88
2021/08/10 11:34:03;;;;;;;;;;;;;;;;;;2120592;59;1118;-88
2021/08/10 11:36:29;;;;;;;;;;;;;;;;;;2120378;67;1297;-89
2021/08/10 11:39:06;;;;;;;;;;;;;;;;;;2122354;67;1817;-89
2021/08/10 11:41:39;;;;;;;;;;;;;;;;;;2128676;67;1423;-88
2021/08/10 11:44:15;;;;;;;;;;;;;;;;;;2127570;67;1904;-89
2021/08/10 11:46:42;;;;;;;;;;;;;;;;;;2125133;67;1368;-89
2021/08/10 11:49:09;;;;;;;;;;;;;;;;;;2128599;67;1043;-89
2021/08/10 11:51:41;;;;;;;;;;;;;;;;;;2123751;60;1332;-90
2021/08/10 11:54:08;;;;;;;;;;;;;;;;;;2124129;67;1337;-89
2021/08/10 11:56:34;;;;;;;;;;;;;;;;;;2126999;59;1278;-88
2021/08/10 11:59:01;;;;;;;;;;;;;;;;;;2123653;60;1477;-90
2021/08/10 12:01:27;;;;;;;;;;;;;;;;;;2124067;60;1106;-89
2021/08/10 12:03:53;;;;;;;;;;;;;;;;;;2122622;59;1948;-90
2021/08/10 12:06:27;;;;;;;;;;;;;;;;;;2123983;60;1266;-89
2021/08/10 12:08:55;;;;;;;;;;;;;;;;;;2137502;59;1312;-89
2021/08/10 12:11:30;;;;;;;;;;;;;;;;;;2129883;59;1250;-89
2021/08/10 12:14:07;;;;;;;;;;;;;;;;;;2135234;67;1326;-89
2021/08/10 12:16:55;;;;;;;;;;;;;;;;;;2120827;67;1318;-89
2021/08/10 12:19:27;;;;;;;;;;;;;;;;;;2122649;67;1479;-89
2021/08/10 12:21:57;;;;;;;;;;;;;;;;;;2124838;60;1345;-90
2021/08/10 12:24:23;;;;;;;;;;;;;;;;;;2122262;67;1983;-89
2021/08/10 12:26:56;;;;;;;;;;;;;;;;;;2129976;67;1144;-89
2021/08/10 12:29:30;;;;;;;;;;;;;;;;;;2129874;59;1045;-91
2021/08/10 12:31:56;;;;;;;;;;;;;;;;;;2123076;60;1098;-90
2021/08/10 12:34:27;;;;;;;;;;;;;;;;;;2125963;60;1317;-90
2021/08/10 12:36:52;;;;;;;;;;;;;;;;;;2126064;60;1277;-89
2021/08/10 12:39:18;;;;;;;;;;;;;;;;;;2138629;67;908;-89
2021/08/10 12:41:44;;;;;;;;;;;;;;;;;;2124963;59;1170;-91
2021/08/10 12:44:10;;;;;;;;;;;;;;;;;;2138512;60;1897;-89
2021/08/10 12:46:36;;;;;;;;;;;;;;;;;;2136392;59;1370;-88
2021/08/10 12:49:15;;;;;;;;;;;;;;;;;;2123440;60;1284;-90
2021/08/10 12:51:59;;;;;;;;;;;;;;;;;;2130841;60;1076;-90
2021/08/10 12:54:35;;;;;;;;;;;;;;;;;;2123375;67;1285;-91
2021/08/10 12:57:02;;;;;;;;;;;;;;;;;;2123511;67;853;-89
2021/08/10 12:59:41;;;;;;;;;;;;;;;;;;2122748;60;2183;-88
2021/08/10 13:02:07;;;;;;;;;;;;;;;;;;2125878;60;1304;-90
2021/08/10 13:04:34;;;;;;;;;;;;;;;;;;2138691;59;1909;-90
2021/08/10 13:07:12;;;;;;;;;;;;;;;;;;2138948;59;936;-89
2021/08/10 13:09:47;;;;;;;;;;;;;;;;;;2123292;59;1270;-89
2021/08/10 13:12:13;;;;;;;;;;;;;;;;;;2122777;60;1064;-91
2021/08/10 13:14:56;;;;;;;;;;;;;;;;;;2123605;59;1281;-90
2021/08/10 13:17:31;;;;;;;;;;;;;;;;;;2132211;67;1059;-90
2021/08/10 13:20:03;;;;;;;;;;;;;;;;;;2126158;59;1043;-91
2021/08/10 13:22:49;;;;;;;;;;;;;;;;;;2123592;67;1331;-90
2021/08/10 13:25:18;;;;;;;;;;;;;;;;;;2117096;60;2270;-90
2021/08/10 13:27:43;;;;;;;;;;;;;;;;;;2131943;67;1357;-91
2021/08/10 13:30:23;;;;;;;;;;;;;;;;;;2138529;59;1397;-88
2021/08/10 13:33:02;;;;;;;;;;;;;;;;;;2116296;67;1184;-90
2021/08/10 13:35:34;;;;;;;;;;;;;;;;;;2122690;60;1460;-90
2021/08/10 13:38:02;;;;;;;;;;;;;;;;;;2121956;67;1423;-89
2021/08/10 13:40:28;;;;;;;;;;;;;;;;;;2123264;67;877;-91
2021/08/10 13:42:53;;;;;;;;;;;;;;;;;;2123968;59;1243;-90
2021/08/10 13:45:28;;;;;;;;;;;;;;;;;;2123913;67;1904;-89
2021/08/10 13:47:53;;;;;;;;;;;;;;;;;;2117904;67;987;-90
2021/08/10 13:50:19;;;;;;;;;;;;;;;;;;2123807;60;1041;-92
2021/08/10 13:52:51;;;;;;;;;;;;;;;;;;2128609;60;1035;-90
2021/08/10 13:55:24;;;;;;;;;;;;;;;;;;2123974;67;1309;-90
2021/08/10 13:57:50;;;;;;;;;;;;;;;;;;2122754;67;1372;-90
2021/08/10 14:00:16;;;;;;;;;;;;;;;;;;2134028;67;1409;-90
2021/08/10 14:02:43;;;;;;;;;;;;;;;;;;2121853;59;1304;-89
2021/08/10 14:05:10;;;;;;;;;;;;;;;;;;2124791;67;1992;-88
2021/08/10 14:07:44;;;;;;;;;;;;;;;;;;2123781;67;1265;-91
2021/08/10 14:10:31;;;;;;;;;;;;;;;;;;2121692;60;1123;-89
2021/08/10 14:12:57;;;;;;;;;;;;;;;;;;2119966;60;1109;-89
2021/08/10 14:15:22;;;;;;;;;;;;;;;;;;2121329;60;1532;-90
2021/08/10 14:18:06;;;;;;;;;;;;;;;;;;2124921;67;1290;-90
2021/08/10 14:20:33;;;;;;;;;;;;;;;;;;2125440;67;1289;-89
2021/08/10 14:22:58;;;;;;;;;;;;;;;;;;2120968;59;1496;-89
2021/08/10 14:25:24;;;;;;;;;;;;;;;;;;2121459;59;1940;-89
2021/08/10 14:27:50;;;;;;;;;;;;;;;;;;2133229;59;1067;-90
2021/08/10 14:30:15;;;;;;;;;;;;;;;;;;2126176;67;1349;-88
2021/08/10 14:32:40;;;;;;;;;;;;;;;;;;2124526;60;1218;-88
2021/08/10 14:35:06;;;;;;;;;;;;;;;;;;2127985;67;1294;-89
2021/08/10 14:37:31;;;;;;;;;;;;;;;;;;2132017;59;1343;-90
2021/08/10 14:39:56;;;;;;;;;;;;;;;;;;2125302;59;1401;-89
2021/08/10 14:42:31;;;;;;;;;;;;;;;;;;2127048;60;984;-91
2021/08/10 14:44:56;;;;;;;;;;;;;;;;;;2134194;59;1960;-89
2021/08/10 14:47:22;;;;;;;;;;;;;;;;;;2122176;67;1169;-89
2021/08/10 14:49:47;;;;;;;;;;;;;;;;;;2134234;60;1083;-89
2021/08/10 14:52:12;;;;;;;;;;;;;;;;;;2135274;67;1400;-90
2021/08/10 14:54:37;;;;;;;;;;;;;;;;;;2130671;59;1322;-89
2021/08/10 14:57:03;;;;;;;;;;;;;;;;;;2136754;59;1086;-88
2021/08/10 14:59:28;;;;;;;;;;;;;;;;;;2132141;59;2463;-88
2021/08/10 15:11:24;;;;;;;;;;;;;;;;;;2143022;67;1319;-90
2021/08/10 15:14:02;;;;;;;;;;;;;;;;;;2141560;59;1497;-89
2021/08/10 15:17:03;;;;;;;;;;;;;;;;;;2141784;59;1628;-88
2021/08/10 15:19:35;;;;;;;;;;;;;;;;;;2141937;59;1183;-89
2021/08/10 15:22:01;;;;;;;;;;;;;;;;;;2138237;59;1395;-89
2021/08/10 15:24:32;;;;;;;;;;;;;;;;;;2141889;67;1913;-89
2021/08/10 15:26:57;;;;;;;;;;;;;;;;;;2138450;59;1441;-89
2021/08/10 15:29:25;;;;;;;;;;;;;;;;;;2138164;59;1379;-90
2021/08/10 15:31:54;;;;;;;;;;;;;;;;;;2145243;59;1104;-89
2021/08/10 15:34:20;;;;;;;;;;;;;;;;;;2146578;59;1229;-89
2021/08/10 15:36:47;;;;;;;;;;;;;;;;;;2138418;59;1305;-88
2021/08/10 15:39:25;;;;;;;;;;;;;;;;;;2141363;67;1130;-90
2021/08/10 15:41:50;;;;;;;;;;;;;;;;;;2139710;67;1445;-88
2021/08/10 15:44:16;;;;;;;;;;;;;;;;;;2141824;67;1931;-89
2021/08/10 15:46:47;;;;;;;;;;;;;;;;;;2140160;59;1252;-89
2021/08/10 15:49:27;;;;;;;;;;;;;;;;;;2142571;59;1146;-90
2021/08/10 15:51:52;;;;;;;;;;;;;;;;;;2138705;59;1600;-90
2021/08/10 15:54:18;;;;;;;;;;;;;;;;;;2142137;67;1300;-90
2021/08/10 15:56:45;;;;;;;;;;;;;;;;;;2141414;59;1244;-89
2021/08/10 15:59:13;;;;;;;;;;;;;;;;;;2142165;59;1062;-90
2021/08/10 16:01:58;;;;;;;;;;;;;;;;;;2142620;59;902;-89
2021/08/10 16:04:23;;;;;;;;;;;;;;;;;;2144193;59;1977;-90
2021/08/10 16:06:54;;;;;;;;;;;;;;;;;;2142046;67;1252;-90
2021/08/10 16:09:19;;;;;;;;;;;;;;;;;;2137229;59;2033;-90
2021/08/10 16:11:45;;;;;;;;;;;;;;;;;;2139717;67;983;-90
2021/08/10 16:14:10;;;;;;;;;;;;;;;;;;2140033;60;1304;-90
2021/08/10 16:16:35;;;;;;;;;;;;;;;;;;2137170;59;1607;-90
2021/08/10 16:19:02;;;;;;;;;;;;;;;;;;2140530;59;1077;-89
2021/08/10 16:21:27;;;;;;;;;;;;;;;;;;2142993;60;1372;-90
2021/08/10 16:24:05;;;;;;;;;;;;;;;;;;2141050;67;1932;-90
2021/08/10 16:26:30;;;;;;;;;;;;;;;;;;2141355;59;1313;-90
2021/08/10 16:28:56;;;;;;;;;;;;;;;;;;2142362;67;1091;-90
2021/08/10 16:31:21;;;;;;;;;;;;;;;;;;2139534;67;965;-89
2021/08/10 16:33:46;;;;;;;;;;;;;;;;;;2141888;59;1229;-89
2021/08/10 16:36:11;;;;;;;;;;;;;;;;;;2142981;59;1276;-89
2021/08/10 16:38:38;;;;;;;;;;;;;;;;;;2141774;67;1148;-89
2021/08/10 16:41:06;;;;;;;;;;;;;;;;;;2140026;59;1292;-89
2021/08/10 16:43:31;;;;;;;;;;;;;;;;;;2143680;67;1959;-90
2021/08/10 16:46:05;;;;;;;;;;;;;;;;;;2142218;67;1413;-89
2021/08/10 16:48:31;;;;;;;;;;;;;;;;;;2139587;67;1068;-91
2021/08/10 16:50:56;;;;;;;;;;;;;;;;;;2138340;67;1381;-89
2021/08/10 16:53:21;;;;;;;;;;;;;;;;;;2142354;59;1169;-88
2021/08/10 16:55:47;;;;;;;;;;;;;;;;;;2139433;67;1241;-90
2021/08/10 16:58:12;;;;;;;;;;;;;;;;;;2142992;67;1207;-90
2021/08/10 17:00:37;;;;;;;;;;;;;;;;;;2138761;67;1373;-89
2021/08/10 17:03:03;;;;;;;;;;;;;;;;;;2142530;59;2491;-88
2021/08/10 17:05:38;;;;;;;;;;;;;;;;;;2143449;59;1920;-89
2021/08/10 17:08:05;;;;;;;;;;;;;;;;;;2142486;59;1075;-88
2021/08/10 17:10:35;;;;;;;;;;;;;;;;;;2138993;59;1300;-91
2021/08/10 17:13:00;;;;;;;;;;;;;;;;;;2139165;59;1337;-89
2021/08/10 17:15:28;;;;;;;;;;;;;;;;;;2143244;67;1268;-89
2021/08/10 17:17:53;;;;;;;;;;;;;;;;;;2142769;67;990;-88